Time;durP1;ratioP1;P1;durP2;ratioP2;P2;SDS_P1;SDS_P2;PMS_P1;PMS_P2;Temp;Humidity;BMP_temperature;BMP_pressure;BME280_temperature;BME280_humidity;BME280_pressure;Samples;Min_cycle;Max_cycle;Signal;HPM_P1;HPM_P2
2022/08/18 00:01:50;;;;;;;11.57;10.37;;;26.10;82.30;;;;;;4993394;28;20456;-49
2022/08/18 00:04:16;;;;;;;10.13;9.33;;;26.10;82.70;;;;;;4993631;28;20441;-49
2022/08/18 00:06:43;;;;;;;10.90;9.17;;;26.00;82.70;;;;;;4993689;28;20867;-49
2022/08/18 00:09:11;;;;;;;16.70;11.60;;;26.00;82.90;;;;;;4993208;28;20930;-49
2022/08/18 00:11:41;;;;;;;11.20;10.03;;;26.00;83.00;;;;;;4993332;28;20457;-48
2022/08/18 00:14:08;;;;;;;14.90;9.60;;;26.00;83.10;;;;;;4993400;28;20839;-49
2022/08/18 00:16:34;;;;;;;11.47;10.27;;;26.00;83.10;;;;;;4993437;28;20804;-49
2022/08/18 00:19:03;;;;;;;10.67;9.70;;;25.80;83.00;;;;;;4992920;28;20443;-49
2022/08/18 00:21:29;;;;;;;12.60;11.13;;;25.90;83.30;;;;;;4992962;28;20531;-49
2022/08/18 00:23:56;;;;;;;11.20;10.10;;;25.90;83.40;;;;;;4993188;28;20432;-49
2022/08/18 00:26:23;;;;;;;10.17;9.17;;;25.70;83.30;;;;;;4993156;28;20440;-49
2022/08/18 00:28:49;;;;;;;11.33;10.20;;;25.80;83.50;;;;;;4992759;28;20433;-49
2022/08/18 00:31:16;;;;;;;15.67;9.90;;;25.80;83.60;;;;;;4991364;28;20488;-49
2022/08/18 00:33:43;;;;;;;11.27;9.93;;;25.80;83.70;;;;;;4993180;28;20425;-49
2022/08/18 00:36:12;;;;;;;11.03;9.90;;;25.70;83.70;;;;;;4993509;28;20932;-49
2022/08/18 00:38:39;;;;;;;11.47;10.37;;;25.70;83.70;;;;;;4992724;28;20469;-48
2022/08/18 00:41:07;;;;;;;10.23;9.30;;;25.70;83.90;;;;;;4993039;28;20459;-49
2022/08/18 00:43:39;;;;;;;11.20;10.00;;;25.70;84.00;;;;;;4992974;28;20941;-50
2022/08/18 00:46:06;;;;;;;10.83;9.83;;;25.70;84.20;;;;;;4993183;28;20433;-49
2022/08/18 00:48:33;;;;;;;11.93;10.73;;;25.60;84.20;;;;;;4992799;28;20433;-50
2022/08/18 00:51:06;;;;;;;10.70;9.90;;;25.50;84.20;;;;;;4992960;28;20985;-50
2022/08/18 00:53:40;;;;;;;11.37;10.30;;;25.60;84.40;;;;;;4992860;28;20439;-50
2022/08/18 00:56:12;;;;;;;10.57;9.60;;;25.60;84.50;;;;;;4992675;28;20487;-49
2022/08/18 00:58:43;;;;;;;11.17;10.03;;;25.50;84.60;;;;;;4992308;28;20429;-49
2022/08/18 01:01:11;;;;;;;11.07;10.17;;;25.50;84.70;;;;;;4992657;28;20819;-49
2022/08/18 01:03:39;;;;;;;15.13;10.63;;;25.50;84.70;;;;;;4992391;28;20433;-49
2022/08/18 01:06:13;;;;;;;11.27;10.20;;;25.40;84.70;;;;;;4992005;28;20433;-49
2022/08/18 01:08:41;;;;;;;10.90;9.90;;;25.50;84.80;;;;;;4992505;28;20449;-49
2022/08/18 01:11:09;;;;;;;12.07;10.80;;;25.50;84.90;;;;;;4992596;28;20465;-50
2022/08/18 01:13:57;;;;;;;11.10;10.10;;;25.40;84.80;;;;;;4990329;28;20433;-49
2022/08/18 01:22:02;;;;;;;10.57;9.67;;;25.30;84.80;;;;;;4989387;28;20478;-49
2022/08/18 01:27:20;;;;;;;12.60;9.87;;;25.30;84.90;;;;;;4989402;28;20440;-50
2022/08/18 01:29:48;;;;;;;10.27;9.27;;;25.30;84.90;;;;;;4988920;28;20433;-49
2022/08/18 01:32:18;;;;;;;10.50;9.70;;;25.20;84.80;;;;;;4989161;28;20468;-49
2022/08/18 01:34:46;;;;;;;11.17;9.80;;;25.30;84.70;;;;;;4989074;28;20484;-49
2022/08/18 01:37:15;;;;;;;10.90;9.80;;;25.30;84.80;;;;;;4989233;28;20462;-50
2022/08/18 01:39:43;;;;;;;10.53;9.43;;;25.30;84.80;;;;;;4988802;28;20438;-50
2022/08/18 01:42:10;;;;;;;10.17;9.17;;;25.30;84.60;;;;;;4989127;28;20875;-49
2022/08/18 01:44:40;;;;;;;15.30;9.67;;;25.30;84.30;;;;;;4989985;28;20445;-49
2022/08/18 01:47:07;;;;;;;10.23;9.27;;;25.30;84.20;;;;;;4991484;28;20441;-50
2022/08/18 01:49:33;;;;;;;11.03;10.03;;;25.40;84.30;;;;;;4990902;28;20440;-49
2022/08/18 01:52:00;;;;;;;10.40;9.40;;;25.40;84.10;;;;;;4991275;28;20457;-49
2022/08/18 01:54:28;;;;;;;9.90;9.10;;;25.40;84.00;;;;;;4991299;28;20453;-49
2022/08/18 01:56:57;;;;;;;11.20;10.10;;;25.40;83.70;;;;;;4991370;28;20523;-49
2022/08/18 01:59:24;;;;;;;11.30;10.23;;;25.20;83.40;;;;;;4990860;28;20946;-50
2022/08/18 02:01:52;;;;;;;11.50;10.37;;;25.30;83.40;;;;;;4991256;28;20452;-49
2022/08/18 02:04:20;;;;;;;13.33;9.77;;;25.40;83.20;;;;;;4991219;28;20504;-49
2022/08/18 02:06:47;;;;;;;11.40;9.80;;;25.40;82.90;;;;;;4991267;28;20516;-49
2022/08/18 02:09:13;;;;;;;9.43;8.50;;;25.30;82.50;;;;;;4990911;28;20437;-49
2022/08/18 02:11:40;;;;;;;11.10;10.00;;;25.40;82.50;;;;;;4991146;28;20455;-50
2022/08/18 02:14:08;;;;;;;10.60;9.70;;;25.30;82.20;;;;;;4991186;28;20469;-49
2022/08/18 02:16:34;;;;;;;10.33;9.40;;;25.30;82.50;;;;;;4991078;28;20485;-50
2022/08/18 02:19:01;;;;;;;10.87;9.77;;;25.30;82.40;;;;;;4994179;28;20938;-49
2022/08/18 02:21:28;;;;;;;9.93;8.97;;;25.30;82.30;;;;;;4960872;28;991331;-50
2022/08/18 02:23:54;;;;;;;14.57;9.17;;;25.50;82.50;;;;;;4995668;28;20218;-50
2022/08/18 02:26:23;;;;;;;12.33;11.00;;;25.30;82.40;;;;;;4995649;28;20448;-50
2022/08/18 02:28:49;;;;;;;10.80;9.80;;;25.20;82.50;;;;;;4995177;28;20437;-49
2022/08/18 02:31:20;;;;;;;12.30;9.83;;;25.20;82.50;;;;;;4995283;28;20832;-49
2022/08/18 02:33:47;;;;;;;11.97;10.87;;;25.20;82.50;;;;;;4995523;28;20433;-49
2022/08/18 02:36:14;;;;;;;11.30;10.20;;;25.20;82.60;;;;;;4995424;28;20484;-49
2022/08/18 02:38:42;;;;;;;13.10;11.00;;;25.20;82.60;;;;;;4994957;28;20774;-49
2022/08/18 02:41:12;;;;;;;11.73;10.53;;;25.10;82.60;;;;;;4995254;28;20494;-49
2022/08/18 02:43:40;;;;;;;12.23;11.20;;;25.20;82.80;;;;;;4995281;28;20425;-49
2022/08/18 02:46:09;;;;;;;11.20;10.20;;;25.20;82.70;;;;;;4993968;28;20869;-49
2022/08/18 02:48:37;;;;;;;14.07;10.33;;;25.10;82.60;;;;;;4994857;28;20431;-49
2022/08/18 02:51:06;;;;;;;14.73;11.20;;;25.20;82.90;;;;;;4994960;28;20457;-49
2022/08/18 02:53:33;;;;;;;13.00;10.23;;;25.10;83.20;;;;;;4995139;28;20429;-49
2022/08/18 02:56:15;;;;;;;11.50;10.50;;;25.10;83.40;;;;;;4994958;28;20473;-50
2022/08/18 02:58:42;;;;;;;14.07;11.20;;;25.10;83.70;;;;;;4994793;28;20527;-49
2022/08/18 03:01:09;;;;;;;11.30;10.20;;;25.00;83.70;;;;;;4994872;28;20454;-49
2022/08/18 03:03:37;;;;;;;12.30;11.20;;;25.00;83.80;;;;;;4994601;28;20495;-50
2022/08/18 03:06:04;;;;;;;11.70;10.57;;;24.70;83.80;;;;;;4994822;28;20434;-49
2022/08/18 03:08:31;;;;;;;11.43;10.17;;;24.90;84.00;;;;;;4994433;28;20441;-49
2022/08/18 03:10:58;;;;;;;13.33;10.33;;;24.90;84.40;;;;;;4994644;28;20515;-50
2022/08/18 03:13:25;;;;;;;11.17;10.00;;;24.90;84.60;;;;;;4994701;28;20437;-50
2022/08/18 03:15:52;;;;;;;12.40;11.20;;;24.80;84.90;;;;;;4994416;28;20828;-50
2022/08/18 03:18:18;;;;;;;14.17;11.07;;;24.80;85.00;;;;;;4994520;28;20443;-49
2022/08/18 03:20:46;;;;;;;18.47;11.77;;;24.70;85.20;;;;;;4993937;28;20469;-49
2022/08/18 03:23:13;;;;;;;12.57;11.33;;;24.70;85.50;;;;;;4994422;28;20441;-50
2022/08/18 03:25:44;;;;;;;12.37;11.27;;;24.70;85.70;;;;;;4994306;28;20798;-49
2022/08/18 03:28:11;;;;;;;15.43;11.70;;;24.60;85.90;;;;;;4993931;28;20488;-50
2022/08/18 03:30:37;;;;;;;21.07;11.93;;;24.60;86.20;;;;;;4993533;28;20465;-49
2022/08/18 03:33:04;;;;;;;13.47;12.17;;;24.50;86.30;;;;;;4994318;28;20437;-49
2022/08/18 03:35:31;;;;;;;15.73;11.30;;;24.50;86.50;;;;;;4994060;28;20477;-49
2022/08/18 03:38:00;;;;;;;15.57;11.30;;;24.40;86.60;;;;;;4994117;28;20430;-49
2022/08/18 03:40:26;;;;;;;14.20;11.50;;;24.40;86.90;;;;;;4994099;28;20472;-49
2022/08/18 03:42:53;;;;;;;14.77;11.03;;;24.40;87.20;;;;;;4994103;28;20502;-50
2022/08/18 03:45:21;;;;;;;16.07;11.73;;;24.30;87.30;;;;;;4994027;28;20797;-49
2022/08/18 03:47:50;;;;;;;16.90;11.47;;;24.30;87.50;;;;;;4994040;28;20438;-49
2022/08/18 03:50:18;;;;;;;13.03;11.70;;;24.30;87.80;;;;;;4993423;28;20572;-49
2022/08/18 03:52:47;;;;;;;14.30;11.13;;;24.30;88.00;;;;;;4994043;28;20472;-49
2022/08/18 03:55:15;;;;;;;16.50;11.60;;;24.10;87.90;;;;;;4992453;28;20462;-49
2022/08/18 03:57:41;;;;;;;17.40;11.90;;;24.30;88.20;;;;;;4993813;28;20523;-49
2022/08/18 04:00:10;;;;;;;11.47;10.37;;;24.30;88.40;;;;;;4993743;28;20454;-49
2022/08/18 04:02:37;;;;;;;13.87;12.43;;;24.30;88.50;;;;;;4993704;28;20431;-49
2022/08/18 04:05:04;;;;;;;22.33;12.80;;;24.00;88.40;;;;;;4993586;28;20441;-50
2022/08/18 04:07:31;;;;;;;18.30;11.90;;;24.30;88.90;;;;;;4993946;28;20436;-50
2022/08/18 04:09:58;;;;;;;15.27;12.63;;;24.30;88.90;;;;;;4993282;28;20446;-49
2022/08/18 04:12:26;;;;;;;15.50;11.83;;;24.30;89.10;;;;;;4993721;28;20460;-50
2022/08/18 04:14:53;;;;;;;17.37;12.70;;;24.20;89.10;;;;;;4993584;28;20494;-50
2022/08/18 04:17:23;;;;;;;15.23;12.60;;;24.30;89.30;;;;;;4993518;28;20477;-50
2022/08/18 04:19:51;;;;;;;14.37;12.83;;;24.30;89.40;;;;;;4993145;28;20455;-49
2022/08/18 04:22:18;;;;;;;15.83;12.23;;;24.10;88.90;;;;;;5024148;23;20519;-47
2022/08/18 04:24:45;;;;;;;15.93;11.93;;;24.30;88.70;;;;;;5012524;28;20789;-47
2022/08/18 04:27:11;;;;;;;15.20;13.10;;;24.40;88.50;;;;;;5012494;28;20515;-47
2022/08/18 04:29:39;;;;;;;14.90;12.17;;;24.40;88.30;;;;;;5012130;28;20482;-47
2022/08/18 04:32:06;;;;;;;13.60;12.20;;;24.50;88.40;;;;;;5012945;28;20455;-47
2022/08/18 04:34:34;;;;;;;13.17;11.93;;;24.50;88.50;;;;;;5012418;28;20546;-47
2022/08/18 04:37:01;;;;;;;14.37;12.87;;;24.50;88.30;;;;;;5012314;28;20837;-48
2022/08/18 04:39:28;;;;;;;15.20;13.40;;;24.60;88.30;;;;;;5010573;28;20452;-49
2022/08/18 04:41:55;;;;;;;13.73;12.17;;;24.50;88.20;;;;;;5012059;28;20819;-48
2022/08/18 04:44:22;;;;;;;16.60;11.70;;;24.60;88.20;;;;;;5012319;28;20437;-49
2022/08/18 04:46:52;;;;;;;15.03;12.40;;;24.70;88.20;;;;;;5012274;28;20443;-49
2022/08/18 04:49:20;;;;;;;15.20;13.40;;;24.70;88.20;;;;;;5011965;28;20444;-48
2022/08/18 04:54:30;;;;;;;17.03;12.50;;;24.60;87.70;;;;;;5011793;28;20447;-48
2022/08/18 04:56:57;;;;;;;14.57;12.97;;;24.80;87.90;;;;;;5011702;28;20486;-48
2022/08/18 04:59:24;;;;;;;16.47;13.60;;;24.80;87.90;;;;;;5011568;28;20845;-47
2022/08/18 05:01:52;;;;;;;12.73;11.63;;;24.90;87.90;;;;;;5012006;28;20456;-48
2022/08/18 05:04:19;;;;;;;12.90;11.50;;;24.90;87.40;;;;;;5011990;28;20436;-48
2022/08/18 05:06:46;;;;;;;12.50;11.30;;;24.90;86.90;;;;;;5012030;28;20483;-47
2022/08/18 05:09:14;;;;;;;14.00;12.40;;;25.00;86.50;;;;;;5011296;28;20820;-48
2022/08/18 05:11:43;;;;;;;16.40;13.60;;;25.00;86.20;;;;;;5011756;28;20468;-47
2022/08/18 05:14:10;;;;;;;15.23;13.73;;;25.10;86.10;;;;;;5011833;28;20429;-48
2022/08/18 05:16:38;;;;;;;14.37;12.50;;;25.10;85.80;;;;;;5011796;28;20483;-48
2022/08/18 05:19:09;;;;;;;13.20;11.80;;;25.20;85.70;;;;;;5011143;28;20438;-48
2022/08/18 05:21:36;;;;;;;14.60;12.97;;;25.30;85.50;;;;;;5011395;28;20551;-48
2022/08/18 05:24:04;;;;;;;14.60;13.27;;;25.30;85.20;;;;;;5011590;28;20812;-47
2022/08/18 05:26:31;;;;;;;14.17;12.77;;;25.40;85.00;;;;;;5011568;28;20432;-47
2022/08/18 05:28:58;;;;;;;14.10;12.03;;;25.40;84.80;;;;;;5011426;28;20471;-47
2022/08/18 05:31:27;;;;;;;15.07;11.70;;;25.40;84.60;;;;;;5011151;28;20467;-47
2022/08/18 05:33:55;;;;;;;12.93;11.67;;;25.50;84.50;;;;;;5011199;28;20533;-48
2022/08/18 05:36:49;;;;;;;12.90;11.80;;;25.70;84.60;;;;;;5011123;28;20577;-49
2022/08/18 05:39:23;;;;;;;16.33;11.50;;;25.50;84.30;;;;;;5010878;28;20790;-47
2022/08/18 05:41:53;;;;;;;13.90;12.50;;;25.50;84.40;;;;;;5011329;28;20455;-48
2022/08/18 05:44:24;;;;;;;22.77;12.50;;;25.50;84.40;;;;;;5013754;28;20439;-49
2022/08/18 05:46:53;;;;;;;15.10;12.63;;;25.60;84.50;;;;;;5010998;28;20460;-48
2022/08/18 05:49:21;;;;;;;16.17;12.17;;;25.60;84.80;;;;;;5010906;28;20801;-48
2022/08/18 05:51:52;;;;;;;13.20;11.80;;;25.60;84.70;;;;;;5011525;28;20925;-48
2022/08/18 05:57:09;;;;;;;16.53;13.50;;;25.60;84.50;;;;;;5014706;28;20480;-49
2022/08/18 05:59:39;;;;;;;14.43;12.97;;;25.70;84.90;;;;;;5014390;28;20431;-48
2022/08/18 06:02:15;;;;;;;14.30;12.30;;;25.70;84.70;;;;;;5014743;28;20461;-49
2022/08/18 06:04:47;;;;;;;16.50;13.67;;;25.70;84.10;;;;;;5014738;28;20436;-49
2022/08/18 06:07:18;;;;;;;13.37;11.83;;;25.80;83.70;;;;;;5014669;28;20508;-48
2022/08/18 06:09:49;;;;;;;16.40;12.40;;;25.80;83.50;;;;;;5014993;28;20435;-48
2022/08/18 06:12:27;;;;;;;21.93;13.77;;;25.80;83.30;;;;;;5012915;28;21037;-47
2022/08/18 06:15:02;;;;;;;16.60;13.40;;;26.00;82.80;;;;;;5014426;28;20432;-47
2022/08/18 06:17:52;;;;;;;12.70;11.60;;;26.10;82.50;;;;;;5014607;28;20475;-47
2022/08/18 06:20:26;;;;;;;15.97;13.23;;;26.00;82.00;;;;;;5012844;28;20456;-49
2022/08/18 06:23:02;;;;;;;14.60;13.07;;;26.30;81.90;;;;;;5014379;28;20436;-48
2022/08/18 06:25:37;;;;;;;18.13;13.97;;;26.50;81.70;;;;;;5014555;28;20522;-48
2022/08/18 06:28:07;;;;;;;16.87;13.03;;;26.50;81.70;;;;;;5014635;28;20427;-48
2022/08/18 06:30:46;;;;;;;16.23;11.93;;;26.60;81.30;;;;;;5013981;28;20448;-46
2022/08/18 06:33:38;;;;;;;14.43;12.90;;;26.80;81.00;;;;;;5014514;28;20534;-48
2022/08/18 06:36:15;;;;;;;16.30;13.17;;;26.80;80.00;;;;;;5014077;28;20443;-49
2022/08/18 06:38:52;;;;;;;13.70;12.27;;;27.00;79.30;;;;;;5013733;28;20444;-48
2022/08/18 06:41:21;;;;;;;14.70;13.30;;;27.10;78.30;;;;;;5013918;28;20460;-49
2022/08/18 06:43:58;;;;;;;14.57;13.30;;;27.10;78.10;;;;;;5014034;28;20432;-47
2022/08/18 06:46:35;;;;;;;15.67;14.07;;;27.20;77.60;;;;;;5013736;28;20505;-49
2022/08/18 06:49:04;;;;;;;13.13;11.70;;;27.30;77.70;;;;;;5013847;28;20536;-49
2022/08/18 06:51:31;;;;;;;15.00;13.50;;;27.30;77.50;;;;;;5013826;28;20467;-50
2022/08/18 06:54:02;;;;;;;13.73;12.50;;;27.40;77.40;;;;;;5013911;28;20548;-49
2022/08/18 06:56:36;;;;;;;13.87;12.57;;;27.40;77.10;;;;;;5014092;28;20507;-50
2022/08/18 06:59:31;;;;;;;14.00;12.63;;;27.40;77.10;;;;;;5011707;28;20456;-48
2022/08/18 07:02:01;;;;;;;13.40;12.10;;;27.40;76.50;;;;;;5000862;28;20476;-48
2022/08/18 07:04:42;;;;;;;19.60;13.03;;;27.40;77.10;;;;;;5012803;28;20444;-49
2022/08/18 07:07:17;;;;;;;15.23;13.00;;;27.40;76.70;;;;;;5013661;28;20435;-50
2022/08/18 07:09:45;;;;;;;19.67;13.90;;;27.50;76.80;;;;;;5013079;28;20433;-48
2022/08/18 07:12:19;;;;;;;19.63;17.53;;;27.40;76.70;;;;;;5013170;28;20462;-48
2022/08/18 07:14:49;;;;;;;16.33;12.90;;;27.60;76.60;;;;;;5013412;28;20438;-48
2022/08/18 07:17:21;;;;;;;17.00;13.67;;;27.60;76.50;;;;;;5013392;28;20475;-50
2022/08/18 07:19:59;;;;;;;14.73;12.63;;;27.70;76.30;;;;;;5013459;28;20497;-48
2022/08/18 07:22:26;;;;;;;18.00;12.40;;;27.70;76.10;;;;;;5013322;28;20479;-49
2022/08/18 07:24:58;;;;;;;18.23;12.97;;;27.80;76.20;;;;;;5013523;28;20438;-50
2022/08/18 07:27:43;;;;;;;14.87;13.30;;;27.80;76.00;;;;;;5014054;28;20445;-49
2022/08/18 07:30:13;;;;;;;14.80;13.37;;;27.90;75.50;;;;;;5013927;28;20435;-49
2022/08/18 07:32:46;;;;;;;15.73;12.50;;;27.90;76.40;;;;;;5014628;28;20436;-49
2022/08/18 07:35:18;;;;;;;13.63;12.23;;;28.00;75.40;;;;;;5014258;28;20500;-48
2022/08/18 07:37:49;;;;;;;14.73;13.20;;;28.00;75.20;;;;;;5013554;28;20578;-48
2022/08/18 07:40:26;;;;;;;17.57;11.50;;;27.90;74.70;;;;;;5012997;28;20436;-50
2022/08/18 07:42:59;;;;;;;14.90;12.10;;;28.10;74.50;;;;;;5012972;28;20518;-48
2022/08/18 07:45:31;;;;;;;15.17;13.60;;;28.10;74.40;;;;;;5013275;28;20441;-49
2022/08/18 07:48:04;;;;;;;14.60;12.53;;;27.90;74.20;;;;;;5013567;28;20443;-47
2022/08/18 07:50:37;;;;;;;14.30;13.00;;;28.20;74.10;;;;;;5012570;28;20974;-47
2022/08/18 07:53:12;;;;;;;22.13;14.47;;;28.30;74.00;;;;;;5013321;28;20481;-47
2022/08/18 07:55:43;;;;;;;14.80;13.37;;;28.30;74.00;;;;;;5013141;28;20435;-47
2022/08/18 07:58:22;;;;;;;14.73;13.23;;;28.40;74.00;;;;;;5012886;28;20476;-48
2022/08/18 08:00:55;;;;;;;17.33;13.33;;;28.40;73.70;;;;;;5012853;28;20471;-47
2022/08/18 08:03:32;;;;;;;14.77;12.03;;;28.50;73.00;;;;;;5012726;28;20932;-48
2022/08/18 08:06:05;;;;;;;15.50;11.90;;;28.60;72.60;;;;;;5012694;28;20478;-49
2022/08/18 08:08:42;;;;;;;13.60;12.27;;;28.70;72.80;;;;;;5012287;28;20784;-49
2022/08/18 08:11:20;;;;;;;13.37;12.00;;;28.70;72.20;;;;;;5012651;28;20455;-49
2022/08/18 08:14:00;;;;;;;15.73;12.63;;;28.80;71.80;;;;;;5012989;28;20437;-49
2022/08/18 08:16:36;;;;;;;14.83;12.70;;;28.80;71.40;;;;;;5010646;28;20550;-49
2022/08/18 08:19:12;;;;;;;15.20;13.70;;;28.90;71.30;;;;;;5012821;28;20436;-48
2022/08/18 08:21:47;;;;;;;14.50;13.10;;;28.80;71.30;;;;;;5012097;28;20472;-49
2022/08/18 08:24:18;;;;;;;12.03;10.80;;;28.80;71.40;;;;;;5012332;28;20443;-48
2022/08/18 08:26:52;;;;;;;13.83;12.33;;;28.90;71.20;;;;;;5012204;28;20447;-48
2022/08/18 08:29:30;;;;;;;14.20;12.93;;;28.70;70.60;;;;;;5011736;28;20854;-48
2022/08/18 08:32:03;;;;;;;13.87;12.43;;;28.90;71.00;;;;;;5012445;28;20463;-48
2022/08/18 08:34:39;;;;;;;13.60;11.93;;;28.90;70.60;;;;;;5011938;28;20440;-48
2022/08/18 08:37:08;;;;;;;13.73;12.20;;;28.90;70.40;;;;;;5011822;28;20482;-48
2022/08/18 08:39:39;;;;;;;15.70;13.23;;;29.00;70.40;;;;;;5011828;28;20440;-48
2022/08/18 08:42:13;;;;;;;14.53;13.20;;;29.10;70.10;;;;;;5012089;28;20964;-47
2022/08/18 08:44:48;;;;;;;16.90;13.50;;;29.20;69.90;;;;;;5012417;28;20436;-48
2022/08/18 08:47:21;;;;;;;16.27;13.07;;;29.30;69.60;;;;;;5011675;28;20589;-48
2022/08/18 08:49:52;;;;;;;14.90;12.67;;;29.40;69.50;;;;;;5010379;28;20453;-50
2022/08/18 08:52:23;;;;;;;15.03;13.67;;;29.40;69.30;;;;;;5011391;28;20984;-47
2022/08/18 08:54:54;;;;;;;13.83;12.53;;;29.30;68.90;;;;;;5011457;28;20435;-50
2022/08/18 08:57:31;;;;;;;16.13;13.97;;;29.50;68.70;;;;;;5011587;28;21012;-49
2022/08/18 09:00:01;;;;;;;15.40;13.80;;;29.60;68.60;;;;;;5009885;28;20459;-48
2022/08/18 09:02:52;;;;;;;12.80;11.63;;;29.60;68.60;;;;;;5011401;28;20550;-48
2022/08/18 09:05:23;;;;;;;17.13;12.07;;;29.70;68.40;;;;;;5011562;28;20494;-49
2022/08/18 09:08:41;;;;;;;15.13;13.73;;;29.70;68.70;;;;;;5011238;28;20862;-48
2022/08/18 09:11:26;;;;;;;13.70;12.40;;;29.80;67.40;;;;;;4989113;28;20472;-48
2022/08/18 09:14:15;;;;;;;14.00;12.60;;;29.80;67.00;;;;;;4989477;28;20452;-52
2022/08/18 09:16:52;;;;;;;12.33;11.30;;;29.70;67.10;;;;;;4989091;28;20449;-47
2022/08/18 09:19:38;;;;;;;15.27;13.77;;;29.70;67.30;;;;;;4989130;28;20441;-48
2022/08/18 09:22:15;;;;;;;13.90;12.13;;;29.70;67.20;;;;;;4989290;28;20495;-48
2022/08/18 09:24:47;;;;;;;13.77;12.10;;;29.70;67.60;;;;;;4989274;28;20493;-48
2022/08/18 09:27:25;;;;;;;17.63;14.03;;;29.70;68.10;;;;;;4988820;28;20465;-48
2022/08/18 09:29:56;;;;;;;16.20;14.67;;;29.70;68.10;;;;;;4988480;28;20438;-48
2022/08/18 09:32:52;;;;;;;15.43;14.13;;;29.80;68.00;;;;;;4989171;28;21072;-49
2022/08/18 09:35:34;;;;;;;17.53;13.80;;;29.90;67.90;;;;;;4989259;28;20445;-48
2022/08/18 09:44:08;;;;;;;16.03;13.27;;;30.10;68.00;;;;;;4992268;28;20779;-48
2022/08/18 09:47:03;;;;;;;18.10;12.57;;;30.20;67.20;;;;;;4991689;28;20445;-49
2022/08/18 09:49:49;;;;;;;13.07;11.50;;;30.20;66.80;;;;;;4967389;28;20453;-49
2022/08/18 09:52:55;;;;;;;14.10;12.13;;;30.20;66.40;;;;;;4991782;28;20468;-50
2022/08/18 09:55:41;;;;;;;14.40;12.10;;;30.20;66.40;;;;;;4991585;28;20938;-48
2022/08/18 09:58:15;;;;;;;14.87;10.63;;;30.20;66.40;;;;;;4991150;28;20499;-48
2022/08/18 10:00:41;;;;;;;14.50;13.10;;;30.30;66.10;;;;;;5000219;28;20464;-48
2022/08/18 10:03:24;;;;;;;15.57;11.67;;;30.20;66.60;;;;;;5010728;28;20455;-49
2022/08/18 10:06:14;;;;;;;12.00;11.00;;;30.40;66.30;;;;;;5011059;28;20440;-46
2022/08/18 10:09:04;;;;;;;11.77;10.40;;;30.50;65.30;;;;;;5009035;28;20478;-47
2022/08/18 10:11:47;;;;;;;23.63;12.47;;;30.50;64.60;;;;;;5010472;28;20499;-47
2022/08/18 10:14:43;;;;;;;17.50;10.73;;;30.70;64.70;;;;;;5011285;28;20478;-47
2022/08/18 10:17:33;;;;;;;13.57;12.13;;;30.70;64.80;;;;;;5010965;28;20922;-47
2022/08/18 10:20:14;;;;;;;25.77;12.83;;;30.80;65.10;;;;;;5010338;28;20519;-47
2022/08/18 10:22:46;;;;;;;12.40;11.30;;;30.80;64.90;;;;;;5034197;23;20499;-50
2022/08/18 10:25:14;;;;;;;13.40;11.70;;;30.80;64.70;;;;;;5010858;28;20495;-50
2022/08/18 10:27:51;;;;;;;16.03;11.60;;;30.90;64.90;;;;;;5011112;28;20440;-51
2022/08/18 10:30:44;;;;;;;18.30;11.33;;;31.00;64.30;;;;;;5010411;28;20444;-50
2022/08/18 10:33:12;;;;;;;12.37;11.27;;;31.00;63.60;;;;;;4991496;28;20440;-50
2022/08/18 10:35:59;;;;;;;11.37;10.20;;;30.90;64.00;;;;;;4991133;28;20475;-50
2022/08/18 10:38:39;;;;;;;12.37;10.50;;;30.90;63.30;;;;;;4990224;28;20481;-51
2022/08/18 10:41:13;;;;;;;11.90;10.70;;;30.90;63.40;;;;;;4994799;28;20460;-50
2022/08/18 10:43:43;;;;;;;15.57;11.10;;;30.80;63.40;;;;;;4994938;28;20441;-51
2022/08/18 10:46:17;;;;;;;11.40;10.30;;;30.80;63.60;;;;;;4994790;28;20434;-49
2022/08/18 10:48:44;;;;;;;13.80;11.00;;;30.70;63.30;;;;;;4994655;28;20456;-50
2022/08/18 10:51:20;;;;;;;14.60;11.03;;;30.80;63.60;;;;;;4994416;28;20828;-50
2022/08/18 10:53:52;;;;;;;12.07;10.83;;;30.80;63.40;;;;;;4994647;28;20452;-50
2022/08/18 10:56:29;;;;;;;15.50;12.23;;;30.80;63.20;;;;;;4993373;28;20821;-51
2022/08/18 10:59:17;;;;;;;14.20;12.97;;;30.90;63.20;;;;;;4994215;28;20514;-50
2022/08/18 11:02:09;;;;;;;11.70;10.60;;;30.90;62.90;;;;;;4994391;28;20473;-50
2022/08/18 11:04:40;;;;;;;17.43;15.20;;;31.00;61.80;;;;;;4992897;28;20449;-50
2022/08/18 11:07:14;;;;;;;11.57;10.37;;;31.00;61.70;;;;;;4994074;28;20441;-50
2022/08/18 11:09:43;;;;;;;13.53;11.00;;;31.00;60.90;;;;;;4993577;28;20572;-50
2022/08/18 11:12:13;;;;;;;10.80;9.67;;;31.00;60.10;;;;;;4994000;28;20461;-49
2022/08/18 11:14:52;;;;;;;12.37;10.07;;;31.00;59.70;;;;;;4993863;28;20883;-50
2022/08/18 11:17:30;;;;;;;13.20;10.27;;;31.00;59.80;;;;;;4994223;28;20437;-50
2022/08/18 11:20:00;;;;;;;13.93;10.90;;;31.00;59.40;;;;;;4993845;28;20500;-50
2022/08/18 11:22:30;;;;;;;11.10;10.00;;;31.00;59.70;;;;;;4993532;28;20484;-50
2022/08/18 11:24:58;;;;;;;15.50;10.30;;;31.00;59.90;;;;;;4994197;28;20439;-50
2022/08/18 11:27:27;;;;;;;12.50;10.53;;;31.00;59.60;;;;;;4993872;28;20438;-50
2022/08/18 11:29:54;;;;;;;10.63;9.50;;;31.00;59.60;;;;;;4993469;28;20545;-50
2022/08/18 11:32:27;;;;;;;10.53;9.20;;;31.00;59.70;;;;;;4993780;28;20464;-50
2022/08/18 11:35:02;;;;;;;15.50;10.83;;;31.00;59.50;;;;;;4993805;28;20437;-50
2022/08/18 11:37:35;;;;;;;11.87;10.77;;;31.10;59.50;;;;;;4993687;28;20503;-50
2022/08/18 11:40:10;;;;;;;10.97;9.90;;;31.10;59.60;;;;;;4993482;28;20448;-50
2022/08/18 11:42:41;;;;;;;10.57;9.67;;;31.00;59.60;;;;;;4993517;28;20468;-50
2022/08/18 11:45:16;;;;;;;13.83;10.97;;;31.00;59.90;;;;;;4993812;28;20448;-49
2022/08/18 11:47:59;;;;;;;10.53;9.60;;;31.00;59.90;;;;;;4991855;28;20865;-50
2022/08/18 11:50:29;;;;;;;14.40;9.63;;;31.00;59.10;;;;;;4992509;28;20437;-50
2022/08/18 11:53:11;;;;;;;11.57;10.37;;;31.00;58.80;;;;;;4993364;28;20970;-50
2022/08/18 11:55:37;;;;;;;10.83;9.53;;;31.00;59.00;;;;;;4993305;28;20433;-50
2022/08/18 11:58:05;;;;;;;11.50;8.87;;;30.80;58.60;;;;;;4993396;28;20681;-49
2022/08/18 12:00:57;;;;;;;11.43;9.80;;;31.00;57.80;;;;;;4993331;28;20444;-50
2022/08/18 12:03:30;;;;;;;12.40;11.10;;;31.10;57.40;;;;;;4993725;28;20429;-50
2022/08/18 12:06:00;;;;;;;10.07;9.07;;;31.00;57.70;;;;;;4993180;28;20949;-50
2022/08/18 12:08:36;;;;;;;10.17;9.30;;;31.10;57.50;;;;;;4992627;28;20437;-50
2022/08/18 12:11:17;;;;;;;10.20;8.80;;;31.20;56.70;;;;;;4993982;28;20473;-50
2022/08/18 12:13:46;;;;;;;10.10;9.00;;;31.20;56.90;;;;;;4994100;28;20440;-50
2022/08/18 12:16:18;;;;;;;9.63;8.70;;;31.30;56.40;;;;;;4993580;28;21063;-50
2022/08/18 12:18:44;;;;;;;11.03;10.13;;;31.30;56.70;;;;;;4991193;28;20591;-50
2022/08/18 12:21:12;;;;;;;9.27;7.90;;;31.40;57.20;;;;;;4993249;28;20475;-50
2022/08/18 12:23:41;;;;;;;10.70;8.83;;;31.40;56.20;;;;;;4993135;28;20467;-50
2022/08/18 12:26:09;;;;;;;8.47;7.77;;;31.40;55.90;;;;;;4992763;28;20543;-50
2022/08/18 12:28:36;;;;;;;9.83;8.80;;;31.50;55.30;;;;;;4992307;28;20440;-50
2022/08/18 12:31:02;;;;;;;11.03;7.27;;;31.50;56.10;;;;;;4992884;28;20457;-50
2022/08/18 12:33:29;;;;;;;10.53;8.40;;;31.60;55.00;;;;;;4992635;28;20441;-48
2022/08/18 12:35:57;;;;;;;8.70;7.40;;;31.70;54.10;;;;;;4992606;28;20514;-48
2022/08/18 12:38:23;;;;;;;10.70;9.30;;;31.70;53.60;;;;;;4992603;28;20476;-48
2022/08/18 12:40:52;;;;;;;10.30;8.40;;;31.90;53.60;;;;;;4992496;28;20438;-48
2022/08/18 12:43:19;;;;;;;10.37;7.43;;;32.10;53.70;;;;;;4992542;28;20433;-49
2022/08/18 12:45:46;;;;;;;10.27;8.23;;;32.20;53.30;;;;;;4992359;28;20437;-49
2022/08/18 12:48:13;;;;;;;9.67;8.67;;;32.20;53.10;;;;;;4992680;28;20818;-49
2022/08/18 12:50:40;;;;;;;10.70;8.43;;;32.30;52.90;;;;;;4992020;28;20445;-48
2022/08/18 12:53:07;;;;;;;11.80;8.73;;;32.40;53.30;;;;;;4992446;28;20490;-49
2022/08/18 12:55:39;;;;;;;9.90;8.80;;;32.50;53.30;;;;;;4992258;28;20459;-49
2022/08/18 12:58:07;;;;;;;8.97;8.17;;;32.50;53.50;;;;;;4992278;28;20448;-49
2022/08/18 13:00:34;;;;;;;9.10;8.30;;;32.40;53.50;;;;;;4991585;28;20553;-48
2022/08/18 13:03:01;;;;;;;10.40;9.40;;;32.40;53.50;;;;;;4990015;28;20552;-48
2022/08/18 13:05:29;;;;;;;9.77;8.97;;;32.40;53.40;;;;;;4992159;28;20524;-48
2022/08/18 13:07:58;;;;;;;9.33;8.27;;;32.50;53.70;;;;;;4992043;28;20453;-49
2022/08/18 13:10:25;;;;;;;8.80;7.97;;;32.50;53.50;;;;;;4992657;28;20841;-49
2022/08/18 13:12:52;;;;;;;9.27;8.47;;;32.50;52.90;;;;;;4991861;28;20457;-49
2022/08/18 13:15:19;;;;;;;9.93;8.37;;;32.50;52.90;;;;;;4992594;28;20840;-49